createdAt,value
2022-10-05T00:02:22.913Z,98.11
2022-10-05T00:04:53.699Z,97.83
2022-10-05T00:07:22.250Z,98.28
2022-10-05T00:10:09.268Z,98.47
2022-10-05T00:12:35.725Z,98.84
2022-10-05T00:15:07.020Z,99.14
2022-10-05T00:17:33.394Z,99.18
2022-10-05T00:19:59.915Z,99.15
2022-10-05T00:22:32.253Z,99.00
2022-10-05T00:25:01.307Z,98.90
2022-10-05T00:27:34.009Z,98.97
2022-10-05T00:30:11.198Z,99.67
2022-10-05T00:32:37.576Z,98.94
2022-10-05T00:35:04.222Z,99.07
2022-10-05T00:37:30.638Z,99.23
2022-10-05T00:39:57.226Z,99.57
2022-10-05T00:42:53.745Z,99.13
2022-10-05T00:45:32.120Z,99.39
2022-10-05T00:48:19.908Z,99.40
2022-10-05T00:51:13.226Z,99.71
2022-10-05T00:54:28.053Z,100.00
2022-10-05T00:57:19.122Z,100.00
2022-10-05T01:00:07.389Z,100.00
2022-10-05T01:02:46.081Z,100.00
2022-10-05T01:05:57.049Z,100.00
2022-10-05T01:08:50.753Z,100.00
2022-10-05T01:11:23.813Z,100.00
2022-10-05T01:14:06.482Z,100.00
2022-10-05T01:16:51.003Z,100.00
2022-10-05T01:20:03.837Z,100.00
2022-10-05T01:22:41.425Z,100.00
2022-10-05T01:25:26.892Z,100.00
2022-10-05T01:27:57.268Z,100.00
2022-10-05T01:30:23.774Z,100.00
2022-10-05T01:33:09.349Z,100.00
2022-10-05T01:36:03.519Z,100.00
2022-10-05T01:38:44.976Z,100.00
2022-10-05T01:41:25.371Z,100.00
2022-10-05T01:44:31.203Z,100.00
2022-10-05T01:47:06.761Z,100.00
2022-10-05T01:49:38.298Z,100.00
2022-10-05T01:52:46.552Z,100.00
2022-10-05T01:55:31.011Z,100.00
2022-10-05T01:57:57.419Z,100.00
2022-10-05T02:00:23.971Z,100.00
2022-10-05T02:03:16.133Z,100.00
2022-10-05T02:05:57.986Z,100.00
2022-10-05T02:08:31.237Z,100.00
2022-10-05T02:11:07.833Z,100.00
2022-10-05T02:13:48.880Z,100.00
2022-10-05T02:16:26.573Z,100.00
2022-10-05T02:19:09.187Z,100.00
2022-10-05T02:21:36.482Z,100.00
2022-10-05T02:24:09.908Z,100.00
2022-10-05T02:26:37.435Z,100.00
2022-10-05T02:29:09.500Z,100.00
2022-10-05T02:31:50.489Z,100.00
2022-10-05T02:34:27.959Z,100.00
2022-10-05T02:37:24.729Z,100.00
2022-10-05T02:40:01.486Z,100.00
2022-10-05T02:42:43.065Z,100.00
2022-10-05T02:45:34.746Z,100.00
2022-10-05T02:48:37.171Z,100.00
2022-10-05T02:51:38.910Z,100.00
2022-10-05T02:54:25.332Z,100.00
2022-10-05T02:56:57.760Z,100.00
2022-10-05T02:59:44.039Z,100.00
2022-10-05T03:02:19.388Z,100.00
2022-10-05T03:05:06.247Z,100.00
2022-10-05T03:07:39.642Z,100.00
2022-10-05T03:10:11.700Z,100.00
2022-10-05T03:13:10.501Z,100.00
2022-10-05T03:16:21.864Z,100.00
2022-10-05T03:18:58.624Z,100.00
2022-10-05T03:21:40.655Z,100.00
2022-10-05T03:24:25.849Z,100.00
2022-10-05T03:27:06.659Z,100.00
2022-10-05T03:29:43.143Z,100.00
2022-10-05T03:32:31.038Z,100.00
2022-10-05T03:35:04.766Z,100.00
2022-10-05T03:37:47.948Z,100.00
2022-10-05T03:40:34.997Z,100.00
2022-10-05T03:43:27.283Z,100.00
2022-10-05T03:46:12.738Z,100.00
2022-10-05T03:49:01.432Z,100.00
2022-10-05T03:51:33.990Z,100.00
2022-10-05T03:54:24.840Z,100.00
2022-10-05T03:56:55.453Z,100.00
2022-10-05T03:59:32.425Z,100.00
2022-10-05T04:02:02.387Z,100.00
2022-10-05T04:04:37.298Z,100.00
2022-10-05T04:07:05.817Z,100.00
2022-10-05T04:09:53.087Z,100.00
2022-10-05T04:12:30.323Z,100.00
2022-10-05T04:15:07.801Z,100.00
2022-10-05T04:17:42.674Z,100.00
2022-10-05T04:20:18.027Z,100.00
2022-10-05T04:22:56.722Z,100.00
2022-10-05T04:25:29.517Z,100.00
2022-10-05T04:28:13.329Z,100.00
2022-10-05T04:30:43.460Z,100.00
2022-10-05T04:33:12.624Z,100.00
2022-10-05T04:36:16.596Z,100.00
2022-10-05T04:39:20.222Z,100.00
2022-10-05T04:41:52.577Z,100.00
2022-10-05T04:44:27.709Z,100.00
2022-10-05T04:47:15.485Z,100.00
2022-10-05T04:50:07.086Z,100.00
2022-10-05T04:52:47.948Z,100.00
2022-10-05T04:55:43.933Z,100.00
2022-10-05T04:58:42.410Z,100.00
2022-10-05T05:01:50.534Z,100.00
2022-10-05T05:04:19.882Z,100.00
2022-10-05T05:07:23.778Z,100.00
2022-10-05T05:10:03.149Z,100.00
2022-10-05T05:12:38.487Z,100.00
2022-10-05T05:15:28.833Z,100.00
2022-10-05T05:18:27.436Z,100.00
2022-10-05T05:21:02.150Z,100.00
2022-10-05T05:23:55.417Z,100.00
2022-10-05T05:26:30.001Z,100.00
2022-10-05T05:28:59.066Z,100.00
2022-10-05T05:31:49.767Z,100.00
2022-10-05T05:34:48.903Z,100.00
2022-10-05T05:37:30.995Z,100.00
2022-10-05T05:40:12.295Z,100.00
2022-10-05T05:43:03.359Z,100.00
2022-10-05T05:45:43.839Z,100.00
2022-10-05T05:48:30.980Z,100.00
2022-10-05T05:51:16.115Z,100.00
2022-10-05T05:53:49.548Z,100.00
2022-10-05T05:56:32.554Z,100.00
2022-10-05T05:59:25.356Z,100.00
2022-10-05T06:01:59.565Z,100.00
2022-10-05T06:04:35.360Z,100.00
2022-10-05T06:07:05.032Z,100.00
2022-10-05T06:09:43.097Z,100.00
2022-10-05T06:12:14.299Z,100.00
2022-10-05T06:14:48.014Z,100.00
2022-10-05T06:17:42.260Z,100.00
2022-10-05T06:20:59.836Z,100.00
2022-10-05T06:23:35.682Z,100.00
2022-10-05T06:26:15.089Z,100.00
2022-10-05T06:28:42.298Z,100.00
2022-10-05T06:31:40.741Z,100.00
2022-10-05T06:34:29.940Z,100.00
2022-10-05T06:37:01.618Z,100.00
2022-10-05T06:39:47.198Z,100.00
2022-10-05T06:42:41.303Z,100.00
2022-10-05T06:45:17.856Z,100.00
2022-10-05T06:47:51.824Z,100.00
2022-10-05T06:50:55.706Z,100.00
2022-10-05T06:53:44.434Z,100.00
2022-10-05T06:56:35.806Z,100.00
2022-10-05T06:59:14.144Z,100.00
2022-10-05T07:02:08.843Z,100.00
2022-10-05T07:04:37.998Z,100.00
2022-10-05T07:07:11.108Z,100.00
2022-10-05T07:10:07.925Z,100.00
2022-10-05T07:13:12.268Z,100.00
2022-10-05T07:15:44.613Z,100.00
2022-10-05T07:18:32.787Z,100.00
2022-10-05T07:21:17.611Z,100.00
2022-10-05T07:24:02.340Z,100.00
2022-10-05T07:26:51.387Z,100.00
2022-10-05T07:29:45.509Z,100.00
2022-10-05T07:32:34.015Z,100.00
2022-10-05T07:35:36.539Z,100.00
2022-10-05T07:38:12.694Z,100.00
2022-10-05T07:40:47.626Z,100.00
2022-10-05T07:43:45.288Z,100.00
2022-10-05T07:46:45.793Z,100.00
2022-10-05T07:49:25.760Z,100.00
2022-10-05T07:52:00.234Z,100.00
2022-10-05T07:54:53.272Z,100.00
2022-10-05T07:57:28.626Z,100.00
2022-10-05T08:00:11.358Z,100.00
2022-10-05T08:02:45.307Z,100.00
2022-10-05T08:05:15.496Z,100.00
2022-10-05T08:07:42.743Z,100.00
2022-10-05T08:10:33.916Z,100.00
2022-10-05T08:13:16.286Z,100.00
2022-10-05T08:15:48.287Z,100.00
2022-10-05T08:18:23.308Z,100.00
2022-10-05T08:20:54.783Z,99.57
2022-10-05T08:23:25.122Z,99.03
2022-10-05T08:26:15.718Z,98.35
2022-10-05T08:28:54.186Z,97.32
2022-10-05T08:31:26.663Z,97.36
2022-10-05T08:33:53.047Z,96.85
2022-10-05T08:36:26.443Z,95.64
2022-10-05T08:38:55.433Z,96.22
2022-10-05T08:41:50.195Z,96.60
2022-10-05T08:44:50.284Z,95.96
2022-10-05T08:47:38.631Z,95.00
2022-10-05T08:50:16.829Z,95.97
2022-10-05T08:53:35.678Z,96.46
2022-10-05T08:56:37.051Z,96.15
2022-10-05T08:59:50.257Z,96.09
2022-10-05T09:02:41.462Z,96.66
2022-10-05T09:05:14.007Z,96.79
2022-10-05T09:07:43.403Z,98.04
2022-10-05T09:10:24.646Z,97.49
2022-10-05T09:13:21.223Z,97.45
2022-10-05T09:16:16.896Z,97.71
2022-10-05T09:18:55.532Z,97.87
2022-10-05T09:21:43.366Z,98.00
2022-10-05T09:24:12.710Z,98.38
2022-10-05T09:27:16.741Z,98.80
2022-10-05T09:30:30.517Z,98.12
2022-10-05T09:33:13.456Z,98.43
2022-10-05T09:36:09.116Z,97.48
2022-10-05T09:39:13.092Z,96.72
2022-10-05T09:42:16.462Z,97.23
2022-10-05T09:44:52.165Z,97.12
2022-10-05T09:47:26.475Z,96.94
2022-10-05T09:50:17.475Z,96.88
2022-10-05T09:53:12.496Z,95.95
2022-10-05T09:56:09.819Z,96.33
2022-10-05T09:59:06.445Z,95.59
2022-10-05T10:02:04.513Z,95.03
2022-10-05T10:05:05.157Z,94.28
2022-10-05T10:07:39.113Z,94.07
2022-10-05T10:10:39.420Z,94.42
2022-10-05T10:13:36.072Z,93.60
2022-10-05T10:16:12.759Z,93.08
2022-10-05T10:18:48.345Z,91.88
2022-10-05T10:21:35.905Z,91.27
2022-10-05T10:24:08.376Z,90.20
2022-10-05T10:26:53.125Z,90.17
2022-10-05T10:29:50.483Z,91.77
2022-10-05T10:32:19.784Z,92.04
2022-10-05T10:35:18.858Z,90.89
2022-10-05T10:38:28.624Z,91.32
2022-10-05T10:41:23.399Z,91.17
2022-10-05T10:43:59.328Z,91.27
2022-10-05T10:46:37.779Z,91.44
2022-10-05T10:49:22.662Z,91.63
2022-10-05T10:52:43.490Z,92.13
2022-10-05T10:55:28.513Z,91.27
2022-10-05T10:58:27.452Z,92.02
2022-10-05T11:01:27.992Z,92.01
2022-10-05T11:04:21.059Z,91.45
2022-10-05T11:07:11.870Z,91.01
2022-10-05T11:09:53.444Z,92.39
2022-10-05T11:12:55.600Z,91.03
2022-10-05T11:15:45.640Z,91.44
2022-10-05T11:18:20.443Z,90.96
2022-10-05T11:21:17.345Z,90.12
2022-10-05T11:24:17.580Z,89.58
2022-10-05T11:27:12.397Z,88.87
2022-10-05T11:30:02.830Z,89.14
2022-10-05T11:32:42.837Z,89.31
2022-10-05T11:35:41.254Z,88.87
2022-10-05T11:38:25.991Z,89.86
2022-10-05T11:41:19.847Z,90.77
2022-10-05T11:44:07.314Z,91.22
2022-10-05T11:46:55.496Z,90.98
2022-10-05T11:49:34.057Z,89.70
2022-10-05T11:52:06.593Z,90.64
2022-10-05T11:55:09.898Z,89.43
2022-10-05T11:57:43.858Z,89.59
2022-10-05T12:00:18.395Z,89.88
2022-10-05T12:03:03.824Z,87.50
2022-10-05T12:05:36.271Z,87.35
2022-10-05T12:08:14.712Z,87.79
2022-10-05T12:11:07.771Z,85.47
2022-10-05T12:13:58.982Z,84.77
2022-10-05T12:16:41.823Z,84.36
2022-10-05T12:19:22.183Z,82.28
2022-10-05T12:21:59.840Z,83.45
2022-10-05T12:24:38.108Z,83.26
2022-10-05T12:27:11.708Z,81.78
2022-10-05T12:29:46.015Z,82.20
2022-10-05T12:32:24.004Z,82.63
2022-10-05T12:35:01.855Z,78.99
2022-10-05T12:37:43.112Z,79.06
2022-10-05T12:40:40.294Z,80.26
2022-10-05T12:43:33.364Z,79.42
2022-10-05T12:46:17.657Z,81.22
2022-10-05T12:49:15.065Z,82.17
2022-10-05T12:51:58.059Z,83.48
2022-10-05T12:54:30.070Z,83.60
2022-10-05T12:57:25.936Z,83.21
2022-10-05T13:00:04.219Z,83.09
2022-10-05T13:02:44.123Z,82.56
2022-10-05T13:05:10.422Z,82.89
2022-10-05T13:07:51.802Z,81.03
2022-10-05T13:10:31.626Z,82.94
2022-10-05T13:13:09.939Z,80.65
2022-10-05T13:15:40.877Z,80.49
2022-10-05T13:18:18.613Z,79.99
2022-10-05T13:21:13.969Z,80.89
2022-10-05T13:23:59.843Z,82.17
2022-10-05T13:26:39.854Z,82.70
2022-10-05T13:29:40.411Z,82.08
2022-10-05T13:32:12.551Z,82.56
2022-10-05T13:35:11.760Z,81.90
2022-10-05T13:37:48.966Z,82.08
2022-10-05T13:40:33.305Z,82.54
2022-10-05T13:43:14.950Z,82.73
2022-10-05T13:46:14.133Z,84.33
2022-10-05T13:49:08.446Z,84.30
2022-10-05T13:51:49.519Z,82.82
2022-10-05T13:54:27.987Z,82.55
2022-10-05T13:57:28.411Z,83.13
2022-10-05T14:00:02.125Z,82.25
2022-10-05T14:02:38.523Z,82.19
2022-10-05T14:05:19.475Z,82.69
2022-10-05T14:07:50.757Z,82.28
2022-10-05T14:10:40.416Z,80.17
2022-10-05T14:13:44.353Z,76.95
2022-10-05T14:16:13.816Z,77.89
2022-10-05T14:18:59.593Z,78.21
2022-10-05T14:21:30.338Z,77.55
2022-10-05T14:24:25.852Z,79.96
2022-10-05T14:27:25.283Z,80.25
2022-10-05T14:30:13.867Z,81.26
2022-10-05T14:32:49.361Z,80.70
2022-10-05T14:35:21.776Z,80.82
2022-10-05T14:37:56.121Z,80.99
2022-10-05T14:40:26.907Z,82.13
2022-10-05T14:42:53.760Z,81.76
2022-10-05T14:45:33.371Z,81.71
2022-10-05T14:48:01.583Z,81.10
2022-10-05T14:50:30.784Z,81.85
2022-10-05T14:53:03.775Z,81.48
2022-10-05T14:55:39.773Z,81.50
2022-10-05T14:58:36.556Z,80.99
2022-10-05T15:01:30.848Z,81.84
2022-10-05T15:04:31.847Z,80.69
2022-10-05T15:07:20.254Z,81.12
2022-10-05T15:10:14.530Z,81.61
2022-10-05T15:12:46.668Z,81.91
2022-10-05T15:15:33.337Z,82.00
2022-10-05T15:18:05.481Z,83.07
2022-10-05T15:20:44.980Z,82.07
2022-10-05T15:23:26.218Z,82.83
2022-10-05T15:26:01.732Z,82.71
2022-10-05T15:28:40.529Z,82.69
2022-10-05T15:31:35.938Z,79.57
2022-10-05T15:34:58.483Z,79.49
2022-10-05T15:37:44.652Z,80.47
2022-10-05T15:40:37.271Z,79.34
2022-10-05T15:43:12.339Z,78.19
2022-10-05T15:45:52.958Z,78.41
2022-10-05T15:48:29.124Z,79.02
2022-10-05T15:51:22.477Z,78.21
2022-10-05T15:54:41.674Z,78.35
2022-10-05T15:57:19.851Z,78.32
2022-10-05T15:59:51.308Z,78.30
2022-10-05T16:02:24.634Z,79.17
2022-10-05T16:05:05.016Z,79.46
2022-10-05T16:08:00.756Z,79.29
2022-10-05T16:10:28.278Z,79.14
2022-10-05T16:13:11.736Z,79.39
2022-10-05T16:15:48.653Z,80.08
2022-10-05T16:18:42.078Z,79.49
2022-10-05T16:21:14.658Z,79.63
2022-10-05T16:24:06.230Z,80.63
2022-10-05T16:26:50.974Z,80.57
2022-10-05T16:29:24.761Z,81.66
2022-10-05T16:32:00.063Z,81.26
2022-10-05T16:34:46.124Z,82.28
2022-10-05T16:37:17.241Z,82.02
2022-10-05T16:40:00.108Z,81.85
2022-10-05T16:43:18.399Z,82.75
2022-10-05T16:45:56.755Z,82.54
2022-10-05T16:48:28.782Z,83.19
2022-10-05T16:51:12.243Z,82.81
2022-10-05T16:53:44.006Z,82.69
2022-10-05T16:56:20.492Z,83.00
2022-10-05T16:59:37.500Z,83.61
2022-10-05T17:02:30.029Z,83.84
2022-10-05T17:05:24.198Z,84.09
2022-10-05T17:08:13.468Z,84.15
2022-10-05T17:11:10.506Z,84.49
2022-10-05T17:13:47.941Z,84.61
2022-10-05T17:16:34.651Z,84.78
2022-10-05T17:19:21.313Z,84.41
2022-10-05T17:22:08.758Z,85.29
2022-10-05T17:25:02.754Z,85.04
2022-10-05T17:27:35.225Z,85.57
2022-10-05T17:30:40.543Z,85.18
2022-10-05T17:33:13.987Z,85.57
2022-10-05T17:35:52.630Z,85.85
2022-10-05T17:38:40.570Z,85.29
2022-10-05T17:41:09.809Z,85.64
2022-10-05T17:43:36.404Z,85.58
2022-10-05T17:46:06.654Z,86.24
2022-10-05T17:48:49.777Z,86.38
2022-10-05T17:52:04.010Z,86.32
2022-10-05T17:55:11.583Z,86.53
2022-10-05T17:57:39.544Z,86.98
2022-10-05T18:00:29.297Z,86.94
2022-10-05T18:02:57.435Z,87.42
2022-10-05T18:05:30.280Z,87.08
2022-10-05T18:08:11.610Z,87.56
2022-10-05T18:10:58.647Z,87.46
2022-10-05T18:13:50.253Z,87.69
2022-10-05T18:16:54.450Z,87.49
2022-10-05T18:19:22.233Z,87.72
2022-10-05T18:22:03.480Z,87.44
2022-10-05T18:24:52.959Z,87.15
2022-10-05T18:27:34.443Z,87.84
2022-10-05T18:30:24.801Z,87.63
2022-10-05T18:33:09.541Z,87.66
2022-10-05T18:35:37.099Z,87.20
2022-10-05T18:38:42.191Z,87.86
2022-10-05T18:41:20.525Z,87.40
2022-10-05T18:43:55.784Z,87.84
2022-10-05T18:46:24.917Z,87.27
2022-10-05T18:49:19.649Z,87.82
2022-10-05T18:52:00.394Z,87.84
2022-10-05T18:54:33.054Z,88.13
2022-10-05T18:57:20.019Z,88.60
2022-10-05T19:00:01.308Z,88.46
2022-10-05T19:02:38.360Z,88.65
2022-10-05T19:05:46.315Z,89.03
2022-10-05T19:08:32.968Z,89.16
2022-10-05T19:11:12.588Z,89.48
2022-10-05T19:13:45.105Z,89.80
2022-10-05T19:16:17.000Z,90.03
2022-10-05T19:19:11.131Z,89.90
2022-10-05T19:21:38.123Z,90.19
2022-10-05T19:24:24.692Z,90.95
2022-10-05T19:26:56.886Z,90.69
2022-10-05T19:29:57.398Z,91.18
2022-10-05T19:33:00.351Z,91.10
2022-10-05T19:35:38.543Z,91.25
2022-10-05T19:38:25.349Z,90.80
2022-10-05T19:41:15.966Z,91.41
2022-10-05T19:44:06.662Z,91.24
2022-10-05T19:46:54.019Z,91.65
2022-10-05T19:49:47.487Z,95.78
2022-10-05T19:52:36.463Z,100.00
2022-10-05T19:55:31.095Z,100.00
2022-10-05T19:58:01.243Z,100.00
2022-10-05T20:00:33.062Z,100.00
2022-10-05T20:03:11.887Z,100.00
2022-10-05T20:05:39.604Z,100.00
2022-10-05T20:08:06.543Z,100.00
2022-10-05T20:10:33.580Z,99.82
2022-10-05T20:13:02.371Z,100.00
2022-10-05T20:15:49.715Z,99.72
2022-10-05T20:18:54.326Z,100.00
2022-10-05T20:21:39.470Z,100.00
2022-10-05T20:24:09.549Z,92.70
2022-10-05T20:27:02.006Z,92.15
2022-10-05T20:29:29.895Z,94.86
2022-10-05T20:31:57.029Z,96.14
2022-10-05T20:34:24.078Z,96.11
2022-10-05T20:36:51.464Z,96.96
2022-10-05T20:39:18.704Z,96.75
2022-10-05T20:41:45.662Z,96.74
2022-10-05T20:44:13.119Z,98.79
2022-10-05T20:46:42.785Z,99.69
2022-10-05T20:49:10.730Z,100.00
2022-10-05T20:51:40.280Z,100.00
2022-10-05T20:54:07.943Z,100.00
2022-10-05T20:56:34.489Z,100.00
2022-10-05T20:59:00.860Z,100.00
2022-10-05T21:01:28.826Z,100.00
2022-10-05T21:03:55.487Z,100.00
2022-10-05T21:06:22.424Z,100.00
2022-10-05T21:08:51.401Z,100.00
2022-10-05T21:11:17.855Z,100.00
2022-10-05T21:13:45.328Z,100.00
2022-10-05T21:16:15.455Z,100.00
2022-10-05T21:18:44.348Z,100.00
2022-10-05T21:21:11.091Z,100.00
2022-10-05T21:23:37.428Z,100.00
2022-10-05T21:26:03.924Z,100.00
2022-10-05T21:28:31.753Z,100.00
2022-10-05T21:30:58.471Z,100.00
2022-10-05T21:33:25.263Z,100.00
2022-10-05T21:35:51.962Z,100.00
2022-10-05T21:38:18.417Z,100.00
2022-10-05T21:40:45.489Z,100.00
2022-10-05T21:43:13.347Z,100.00
2022-10-05T21:45:40.735Z,100.00
2022-10-05T21:48:08.103Z,100.00
2022-10-05T21:50:35.232Z,100.00
2022-10-05T21:53:04.359Z,100.00
2022-10-05T21:55:32.891Z,100.00
2022-10-05T21:58:01.172Z,100.00
2022-10-05T22:00:27.691Z,100.00
2022-10-05T22:02:54.120Z,100.00
2022-10-05T22:05:20.621Z,100.00
2022-10-05T22:07:47.099Z,100.00
2022-10-05T22:10:13.538Z,100.00
2022-10-05T22:12:42.554Z,100.00
2022-10-05T22:15:09.560Z,100.00
2022-10-05T22:17:36.148Z,100.00
2022-10-05T22:20:03.242Z,100.00
2022-10-05T22:22:29.867Z,100.00
2022-10-05T22:24:56.634Z,100.00
2022-10-05T22:27:25.509Z,100.00
2022-10-05T22:29:52.512Z,100.00
2022-10-05T22:32:18.881Z,100.00
2022-10-05T22:34:45.332Z,100.00
2022-10-05T22:37:13.226Z,100.00
2022-10-05T22:39:40.417Z,100.00
2022-10-05T22:42:07.525Z,100.00
2022-10-05T22:44:34.842Z,100.00
2022-10-05T22:47:01.261Z,100.00
2022-10-05T22:49:28.011Z,100.00
2022-10-05T22:51:54.854Z,100.00
2022-10-05T22:54:21.547Z,100.00
2022-10-05T22:56:47.933Z,100.00
2022-10-05T22:59:14.316Z,100.00
2022-10-05T23:01:40.722Z,100.00
2022-10-05T23:04:08.785Z,100.00
2022-10-05T23:06:35.142Z,100.00
2022-10-05T23:09:01.485Z,100.00
2022-10-05T23:11:29.655Z,100.00
2022-10-05T23:13:57.160Z,100.00
2022-10-05T23:16:26.218Z,100.00
2022-10-05T23:18:54.047Z,100.00
2022-10-05T23:21:22.688Z,100.00
2022-10-05T23:23:51.310Z,100.00
2022-10-05T23:26:20.381Z,100.00
2022-10-05T23:28:47.317Z,100.00
2022-10-05T23:31:16.929Z,100.00
2022-10-05T23:33:43.621Z,100.00
2022-10-05T23:36:14.447Z,100.00
2022-10-05T23:38:40.860Z,100.00
2022-10-05T23:41:08.674Z,100.00
2022-10-05T23:43:36.730Z,100.00
2022-10-05T23:46:05.183Z,100.00
2022-10-05T23:48:32.299Z,100.00
2022-10-05T23:50:59.353Z,100.00
2022-10-05T23:53:25.777Z,100.00
2022-10-05T23:55:54.885Z,100.00
2022-10-05T23:58:22.350Z,100.00
